sensor_id;sensor_type;location;lat;lon;timestamp;pressure;altitude;pressure_sealevel;temperature;humidity
14293;BME280;62290;59.420;17.842;2023-03-13T00:01:10;99884.50;;;25.08;11.45
14293;BME280;62290;59.420;17.842;2023-03-13T00:03:39;99878.44;;;25.06;11.56
14293;BME280;62290;59.420;17.842;2023-03-13T00:06:08;99890.94;;;25.07;11.72
14293;BME280;62290;59.420;17.842;2023-03-13T00:08:36;99876.25;;;25.02;11.31
14293;BME280;62290;59.420;17.842;2023-03-13T00:11:06;99879.31;;;25.07;11.60
14293;BME280;62290;59.420;17.842;2023-03-13T00:13:34;99886.38;;;25.08;11.56
14293;BME280;62290;59.420;17.842;2023-03-13T00:16:04;99885.22;;;25.10;11.53
14293;BME280;62290;59.420;17.842;2023-03-13T00:18:33;99883.50;;;25.09;11.63
14293;BME280;62290;59.420;17.842;2023-03-13T00:21:02;99856.00;;;24.98;11.43
14293;BME280;62290;59.420;17.842;2023-03-13T00:23:33;99878.81;;;25.11;11.22
14293;BME280;62290;59.420;17.842;2023-03-13T00:26:03;99877.13;;;25.10;11.67
14293;BME280;62290;59.420;17.842;2023-03-13T00:28:33;99877.94;;;25.11;11.36
14293;BME280;62290;59.420;17.842;2023-03-13T00:31:02;99877.13;;;25.10;11.22
14293;BME280;62290;59.420;17.842;2023-03-13T00:33:32;99861.94;;;25.09;11.64
14293;BME280;62290;59.420;17.842;2023-03-13T00:36:01;99860.97;;;25.10;11.66
14293;BME280;62290;59.420;17.842;2023-03-13T00:38:29;99855.88;;;25.07;11.38
14293;BME280;62290;59.420;17.842;2023-03-13T00:41:00;99856.22;;;25.12;11.71
14293;BME280;62290;59.420;17.842;2023-03-13T00:43:28;99858.94;;;25.12;11.30
14293;BME280;62290;59.420;17.842;2023-03-13T00:45:57;99854.53;;;25.11;11.34
14293;BME280;62290;59.420;17.842;2023-03-13T00:48:25;99855.56;;;25.10;11.54
14293;BME280;62290;59.420;17.842;2023-03-13T00:50:53;99852.88;;;25.10;11.28
14293;BME280;62290;59.420;17.842;2023-03-13T00:53:22;99847.47;;;25.10;11.55
14293;BME280;62290;59.420;17.842;2023-03-13T00:55:51;99847.47;;;25.10;11.55
14293;BME280;62290;59.420;17.842;2023-03-13T00:58:22;99843.75;;;25.11;11.39
14293;BME280;62290;59.420;17.842;2023-03-13T01:00:50;99845.78;;;25.09;11.39
14293;BME280;62290;59.420;17.842;2023-03-13T01:03:19;99841.38;;;25.08;11.59
14293;BME280;62290;59.420;17.842;2023-03-13T01:05:54;99832.47;;;25.08;11.19
14293;BME280;62290;59.420;17.842;2023-03-13T01:08:25;99827.41;;;25.05;11.32
14293;BME280;62290;59.420;17.842;2023-03-13T01:10:57;99804.25;;;24.86;11.32
14293;BME280;62290;59.420;17.842;2023-03-13T01:13:27;99824.19;;;25.01;11.69
14293;BME280;62290;59.420;17.842;2023-03-13T01:15:56;99820.81;;;24.99;11.52
14293;BME280;62290;59.420;17.842;2023-03-13T01:18:24;99802.59;;;24.93;11.62
14293;BME280;62290;59.420;17.842;2023-03-13T01:20:52;99807.66;;;24.96;11.58
14293;BME280;62290;59.420;17.842;2023-03-13T01:23:20;99805.97;;;24.95;11.71
14293;BME280;62290;59.420;17.842;2023-03-13T01:25:48;99794.34;;;24.95;11.53
14293;BME280;62290;59.420;17.842;2023-03-13T01:28:16;99799.75;;;24.95;11.58
14293;BME280;62290;59.420;17.842;2023-03-13T01:30:46;99796.22;;;24.94;11.31
14293;BME280;62290;59.420;17.842;2023-03-13T01:33:14;99795.34;;;24.94;11.53
14293;BME280;62290;59.420;17.842;2023-03-13T01:35:42;99791.28;;;24.90;11.55
14293;BME280;62290;59.420;17.842;2023-03-13T01:38:12;99787.59;;;24.91;11.76
14293;BME280;62290;59.420;17.842;2023-03-13T01:40:40;99757.19;;;24.73;11.68
14293;BME280;62290;59.420;17.842;2023-03-13T01:43:16;99785.06;;;24.89;11.56
14293;BME280;62290;59.420;17.842;2023-03-13T01:45:59;99785.22;;;24.88;11.58
14293;BME280;62290;59.420;17.842;2023-03-13T01:48:39;99780.88;;;24.87;11.48
14293;BME280;62290;59.420;17.842;2023-03-13T01:51:13;99788.94;;;24.87;11.69
14293;BME280;62290;59.420;17.842;2023-03-13T01:53:46;99785.41;;;24.86;11.45
14293;BME280;62290;59.420;17.842;2023-03-13T01:56:19;99771.56;;;24.81;11.62
14293;BME280;62290;59.420;17.842;2023-03-13T01:58:49;99775.47;;;24.87;11.58
14293;BME280;62290;59.420;17.842;2023-03-13T02:01:21;99770.91;;;24.87;11.33
14293;BME280;62290;59.420;17.842;2023-03-13T02:03:50;99768.38;;;24.86;11.53
14293;BME280;62290;59.420;17.842;2023-03-13T02:06:19;99760.31;;;24.86;11.60
14293;BME280;62290;59.420;17.842;2023-03-13T02:08:51;99759.31;;;24.87;11.37
14293;BME280;62290;59.420;17.842;2023-03-13T02:11:26;99767.22;;;24.88;11.29
14293;BME280;62290;59.420;17.842;2023-03-13T02:13:57;99759.31;;;24.87;11.48
14293;BME280;62290;59.420;17.842;2023-03-13T02:16:27;99750.19;;;24.88;11.36
14293;BME280;62290;59.420;17.842;2023-03-13T02:18:55;99747.66;;;24.86;11.76
14293;BME280;62290;59.420;17.842;2023-03-13T02:21:38;99747.66;;;24.86;11.54
14293;BME280;62290;59.420;17.842;2023-03-13T02:24:12;99741.44;;;24.86;11.19
14293;BME280;62290;59.420;17.842;2023-03-13T02:26:46;99728.94;;;24.85;11.37
14293;BME280;62290;59.420;17.842;2023-03-13T02:29:14;99740.75;;;24.84;11.48
14293;BME280;62290;59.420;17.842;2023-03-13T02:31:45;99728.47;;;24.81;11.54
14293;BME280;62290;59.420;17.842;2023-03-13T02:34:18;99724.41;;;24.85;11.37
14293;BME280;62290;59.420;17.842;2023-03-13T02:36:48;99731.81;;;24.83;11.50
14293;BME280;62290;59.420;17.842;2023-03-13T02:39:19;99728.28;;;24.83;11.54
14293;BME280;62290;59.420;17.842;2023-03-13T02:41:52;99737.22;;;24.83;11.30
14293;BME280;62290;59.420;17.842;2023-03-13T02:44:21;99741.75;;;24.83;11.34
14293;BME280;62290;59.420;17.842;2023-03-13T02:46:50;99749.84;;;24.83;11.34
14293;BME280;62290;59.420;17.842;2023-03-13T02:49:24;99754.75;;;24.79;11.16
14293;BME280;62290;59.420;17.842;2023-03-13T02:51:55;99750.03;;;24.81;11.48
14293;BME280;62290;59.420;17.842;2023-03-13T02:54:27;99731.63;;;24.77;11.62
14293;BME280;62290;59.420;17.842;2023-03-13T02:57:01;99735.03;;;24.79;11.49
14293;BME280;62290;59.420;17.842;2023-03-13T02:59:30;99728.78;;;24.78;11.44
14293;BME280;62290;59.420;17.842;2023-03-13T03:01:58;99720.72;;;24.78;11.42
14293;BME280;62290;59.420;17.842;2023-03-13T03:04:26;99717.31;;;24.76;11.54
14293;BME280;62290;59.420;17.842;2023-03-13T03:06:55;99728.47;;;24.81;11.47
14293;BME280;62290;59.420;17.842;2023-03-13T03:09:23;99726.63;;;24.82;11.03
14293;BME280;62290;59.420;17.842;2023-03-13T03:11:56;99719.34;;;24.82;11.61
14293;BME280;62290;59.420;17.842;2023-03-13T03:14:28;99719.22;;;24.84;11.29
14293;BME280;62290;59.420;17.842;2023-03-13T03:16:56;99718.34;;;24.83;11.50
14293;BME280;62290;59.420;17.842;2023-03-13T03:19:25;99709.28;;;24.84;11.24
14293;BME280;62290;59.420;17.842;2023-03-13T03:21:53;99710.28;;;24.83;11.22
14293;BME280;62290;59.420;17.842;2023-03-13T03:24:21;99709.41;;;24.83;11.27
14293;BME280;62290;59.420;17.842;2023-03-13T03:26:49;99712.78;;;24.85;11.28
14293;BME280;62290;59.420;17.842;2023-03-13T03:29:25;99707.56;;;24.83;11.56
14293;BME280;62290;59.420;17.842;2023-03-13T03:31:56;99707.41;;;24.85;11.39
14293;BME280;62290;59.420;17.842;2023-03-13T03:34:25;99714.66;;;24.84;11.31
14293;BME280;62290;59.420;17.842;2023-03-13T03:36:54;99710.94;;;24.85;11.38
14293;BME280;62290;59.420;17.842;2023-03-13T03:39:22;99708.25;;;24.85;11.59
14293;BME280;62290;59.420;17.842;2023-03-13T03:41:50;99703.72;;;24.86;11.50
14293;BME280;62290;59.420;17.842;2023-03-13T03:44:19;99698.31;;;24.86;11.20
14293;BME280;62290;59.420;17.842;2023-03-13T03:46:53;99698.13;;;24.87;11.26
14293;BME280;62290;59.420;17.842;2023-03-13T03:49:24;99696.28;;;24.88;11.40
14293;BME280;62290;59.420;17.842;2023-03-13T03:51:52;99698.13;;;24.87;11.56
14293;BME280;62290;59.420;17.842;2023-03-13T03:54:26;99696.47;;;24.86;11.18
14293;BME280;62290;59.420;17.842;2023-03-13T03:56:55;99699.16;;;24.86;11.36
14293;BME280;62290;59.420;17.842;2023-03-13T03:59:23;99684.16;;;24.84;11.21
14293;BME280;62290;59.420;17.842;2023-03-13T04:01:56;99690.22;;;24.86;11.57
14293;BME280;62290;59.420;17.842;2023-03-13T04:04:28;99689.25;;;24.87;11.66
14293;BME280;62290;59.420;17.842;2023-03-13T04:07:04;99681.28;;;24.85;11.44
14293;BME280;62290;59.420;17.842;2023-03-13T04:09:33;99674.25;;;24.84;11.33
14293;BME280;62290;59.420;17.842;2023-03-13T04:12:03;99681.28;;;24.85;11.35
14293;BME280;62290;59.420;17.842;2023-03-13T04:14:35;99665.13;;;24.85;11.42
14293;BME280;62290;59.420;17.842;2023-03-13T04:17:06;99652.31;;;24.87;11.26
14293;BME280;62290;59.420;17.842;2023-03-13T04:19:35;99652.31;;;24.87;11.45
14293;BME280;62290;59.420;17.842;2023-03-13T04:22:03;99646.13;;;24.87;11.01
14293;BME280;62290;59.420;17.842;2023-03-13T04:24:31;99643.41;;;24.87;11.46
14293;BME280;62290;59.420;17.842;2023-03-13T04:27:00;99644.09;;;24.89;11.36
14293;BME280;62290;59.420;17.842;2023-03-13T04:29:29;99628.06;;;24.87;11.25
14293;BME280;62290;59.420;17.842;2023-03-13T04:32:27;99622.53;;;24.89;11.30
14293;BME280;62290;59.420;17.842;2023-03-13T04:35:16;99606.19;;;24.90;11.20
14293;BME280;62290;59.420;17.842;2023-03-13T04:38:14;99605.34;;;24.90;11.59
14293;BME280;62290;59.420;17.842;2023-03-13T04:41:05;99601.81;;;24.89;11.37
14293;BME280;62290;59.420;17.842;2023-03-13T04:43:43;99601.81;;;24.89;11.23
14293;BME280;62290;59.420;17.842;2023-03-13T04:46:29;99600.97;;;24.89;11.32
14293;BME280;62290;59.420;17.842;2023-03-13T04:49:27;99580.75;;;24.77;11.36
14293;BME280;62290;59.420;17.842;2023-03-13T04:52:09;99595.06;;;24.93;11.44
14293;BME280;62290;59.420;17.842;2023-03-13T04:54:55;99589.00;;;24.91;11.31
14293;BME280;62290;59.420;17.842;2023-03-13T04:57:37;99581.59;;;24.93;11.55
14293;BME280;62290;59.420;17.842;2023-03-13T05:00:41;99537.13;;;24.73;11.03
14293;BME280;62290;59.420;17.842;2023-03-13T05:03:39;99565.41;;;24.93;11.42
14293;BME280;62290;59.420;17.842;2023-03-13T05:06:20;99550.09;;;24.94;11.62
14293;BME280;62290;59.420;17.842;2023-03-13T05:08:55;99548.06;;;24.96;11.36
14293;BME280;62290;59.420;17.842;2023-03-13T05:11:52;99567.13;;;24.94;11.51
14293;BME280;62290;59.420;17.842;2023-03-13T05:14:41;99559.69;;;24.96;11.42
14293;BME280;62290;59.420;17.842;2023-03-13T05:17:29;99557.84;;;24.97;11.35
14293;BME280;62290;59.420;17.842;2023-03-13T05:20:16;99549.75;;;24.97;11.63
14293;BME280;62290;59.420;17.842;2023-03-13T05:22:52;99546.22;;;24.96;11.41
14293;BME280;62290;59.420;17.842;2023-03-13T05:25:34;99548.59;;;24.99;11.43
14293;BME280;62290;59.420;17.842;2023-03-13T05:28:25;99538.78;;;24.98;11.27
14293;BME280;62290;59.420;17.842;2023-03-13T05:31:08;99530.72;;;24.98;11.40
14293;BME280;62290;59.420;17.842;2023-03-13T05:34:05;99499.44;;;24.81;11.27
14293;BME280;62290;59.420;17.842;2023-03-13T05:36:56;99524.31;;;24.99;11.25
14293;BME280;62290;59.420;17.842;2023-03-13T05:39:53;99516.25;;;24.99;11.53
14293;BME280;62290;59.420;17.842;2023-03-13T05:42:45;99507.13;;;25.00;11.36
14293;BME280;62290;59.420;17.842;2023-03-13T05:45:39;99487.78;;;24.89;11.52
14293;BME280;62290;59.420;17.842;2023-03-13T05:48:23;99502.75;;;24.99;11.62
14293;BME280;62290;59.420;17.842;2023-03-13T05:51:13;99504.59;;;24.99;11.77
14293;BME280;62290;59.420;17.842;2023-03-13T05:53:58;99496.34;;;25.00;11.75
14293;BME280;62290;59.420;17.842;2023-03-13T05:56:58;99490.13;;;25.00;11.61
14293;BME280;62290;59.420;17.842;2023-03-13T05:59:44;99488.94;;;25.02;11.72
14293;BME280;62290;59.420;17.842;2023-03-13T06:02:31;99481.88;;;25.01;11.79
14293;BME280;62290;59.420;17.842;2023-03-13T06:05:00;99471.28;;;24.92;11.60
14293;BME280;62290;59.420;17.842;2023-03-13T06:07:28;99482.53;;;25.03;12.46
14293;BME280;62290;59.420;17.842;2023-03-13T06:09:56;99483.22;;;25.05;12.98
14293;BME280;62290;59.420;17.842;2023-03-13T06:12:24;99477.81;;;25.05;12.81
14293;BME280;62290;59.420;17.842;2023-03-13T06:14:54;99466.19;;;25.05;13.05
14293;BME280;62290;59.420;17.842;2023-03-13T06:17:29;99444.66;;;24.97;12.69
14293;BME280;62290;59.420;17.842;2023-03-13T06:19:57;99459.44;;;25.09;13.36
14293;BME280;62290;59.420;17.842;2023-03-13T06:22:25;99458.25;;;25.11;13.50
14293;BME280;62290;59.420;17.842;2023-03-13T06:24:53;99451.66;;;25.14;13.23
14293;BME280;62290;59.420;17.842;2023-03-13T06:27:21;99448.63;;;25.17;13.70
14293;BME280;62290;59.420;17.842;2023-03-13T06:29:49;99442.22;;;25.18;13.46
14293;BME280;62290;59.420;17.842;2023-03-13T06:32:19;99437.50;;;25.20;13.74
14293;BME280;62290;59.420;17.842;2023-03-13T06:34:47;99433.59;;;25.23;13.32
14293;BME280;62290;59.420;17.842;2023-03-13T06:37:15;99412.25;;;25.13;13.64
14293;BME280;62290;59.420;17.842;2023-03-13T06:39:43;99420.97;;;25.23;13.96
14293;BME280;62290;59.420;17.842;2023-03-13T06:42:11;99425.19;;;25.26;13.70
14293;BME280;62290;59.420;17.842;2023-03-13T06:44:39;99417.75;;;25.28;14.03
14293;BME280;62290;59.420;17.842;2023-03-13T06:47:07;99412.34;;;25.28;14.19
14293;BME280;62290;59.420;17.842;2023-03-13T06:49:37;99412.84;;;25.31;14.15
14293;BME280;62290;59.420;17.842;2023-03-13T06:52:05;99395.97;;;25.29;13.84
14293;BME280;62290;59.420;17.842;2023-03-13T06:54:33;99385.34;;;25.36;13.96
14293;BME280;62290;59.420;17.842;2023-03-13T06:57:00;99375.41;;;25.36;13.80
14293;BME280;62290;59.420;17.842;2023-03-13T06:59:28;99374.38;;;25.37;14.31
14293;BME280;62290;59.420;17.842;2023-03-13T07:01:56;99343.75;;;25.30;13.76
14293;BME280;62290;59.420;17.842;2023-03-13T07:04:24;99359.03;;;25.38;13.75
14293;BME280;62290;59.420;17.842;2023-03-13T07:06:54;99353.00;;;25.36;13.70
14293;BME280;62290;59.420;17.842;2023-03-13T07:09:22;99338.91;;;25.26;13.46
14293;BME280;62290;59.420;17.842;2023-03-13T07:11:50;99367.47;;;25.35;13.87
14293;BME280;62290;59.420;17.842;2023-03-13T07:14:18;99352.13;;;25.35;13.50
14293;BME280;62290;59.420;17.842;2023-03-13T07:16:46;99336.97;;;25.34;13.72
14293;BME280;62290;59.420;17.842;2023-03-13T07:19:14;99333.25;;;25.35;13.51
14293;BME280;62290;59.420;17.842;2023-03-13T07:21:42;99327.03;;;25.35;13.24
14293;BME280;62290;59.420;17.842;2023-03-13T07:24:12;99318.94;;;25.35;13.75
14293;BME280;62290;59.420;17.842;2023-03-13T07:26:40;99306.31;;;25.35;13.68
14293;BME280;62290;59.420;17.842;2023-03-13T07:29:20;99301.75;;;25.36;13.58
14293;BME280;62290;59.420;17.842;2023-03-13T07:31:48;99298.88;;;25.37;13.63
14293;BME280;62290;59.420;17.842;2023-03-13T07:34:16;99304.09;;;25.39;13.32
14293;BME280;62290;59.420;17.842;2023-03-13T07:36:44;99305.75;;;25.40;13.83
14293;BME280;62290;59.420;17.842;2023-03-13T07:39:13;99300.00;;;25.43;13.87
14293;BME280;62290;59.420;17.842;2023-03-13T07:41:41;99289.88;;;25.45;14.07
14293;BME280;62290;59.420;17.842;2023-03-13T07:44:14;99278.75;;;25.48;14.08
14293;BME280;62290;59.420;17.842;2023-03-13T07:46:42;99282.09;;;25.50;14.55
14293;BME280;62290;59.420;17.842;2023-03-13T07:49:11;99273.19;;;25.49;14.35
14293;BME280;62290;59.420;17.842;2023-03-13T07:51:39;99247.03;;;25.50;14.44
14293;BME280;62290;59.420;17.842;2023-03-13T07:54:10;99250.59;;;25.50;14.30
14293;BME280;62290;59.420;17.842;2023-03-13T07:56:39;99234.75;;;25.47;14.50
14293;BME280;62290;59.420;17.842;2023-03-13T07:59:07;99219.91;;;25.51;14.82
14293;BME280;62290;59.420;17.842;2023-03-13T08:01:35;99205.59;;;25.51;14.66
14293;BME280;62290;59.420;17.842;2023-03-13T08:04:04;99202.81;;;25.59;14.32
14293;BME280;62290;59.420;17.842;2023-03-13T08:06:32;99194.81;;;25.65;14.59
14293;BME280;62290;59.420;17.842;2023-03-13T08:09:02;99205.91;;;25.70;14.64
14293;BME280;62290;59.420;17.842;2023-03-13T08:11:31;99199.31;;;25.73;14.47
14293;BME280;62290;59.420;17.842;2023-03-13T08:14:00;99200.97;;;25.74;14.76
14293;BME280;62290;59.420;17.842;2023-03-13T08:16:30;99179.38;;;25.74;14.73
14293;BME280;62290;59.420;17.842;2023-03-13T08:19:00;99178.19;;;25.76;14.97
14293;BME280;62290;59.420;17.842;2023-03-13T08:21:31;99178.38;;;25.75;14.74
14293;BME280;62290;59.420;17.842;2023-03-13T08:24:01;99170.75;;;25.78;14.79
14293;BME280;62290;59.420;17.842;2023-03-13T08:26:32;99171.94;;;25.76;14.60
14293;BME280;62290;59.420;17.842;2023-03-13T08:29:04;99171.13;;;25.75;14.54
14293;BME280;62290;59.420;17.842;2023-03-13T08:31:33;99159.66;;;25.73;14.78
14293;BME280;62290;59.420;17.842;2023-03-13T08:34:02;99151.75;;;25.72;15.01
14293;BME280;62290;59.420;17.842;2023-03-13T08:36:32;99150.06;;;25.71;15.12
14293;BME280;62290;59.420;17.842;2023-03-13T08:39:02;99149.06;;;25.72;14.99
14293;BME280;62290;59.420;17.842;2023-03-13T08:41:32;99136.88;;;25.76;14.90
14293;BME280;62290;59.420;17.842;2023-03-13T08:44:03;99133.63;;;25.81;15.40
14293;BME280;62290;59.420;17.842;2023-03-13T08:46:33;99127.03;;;25.83;15.41
14293;BME280;62290;59.420;17.842;2023-03-13T08:49:03;99117.06;;;25.84;15.16
14293;BME280;62290;59.420;17.842;2023-03-13T08:51:32;99109.63;;;25.86;15.29
14293;BME280;62290;59.420;17.842;2023-03-13T08:54:01;99103.19;;;25.87;15.36
14293;BME280;62290;59.420;17.842;2023-03-13T08:56:30;99097.78;;;25.87;15.63
14293;BME280;62290;59.420;17.842;2023-03-13T08:59:03;99100.97;;;25.90;15.56
14293;BME280;62290;59.420;17.842;2023-03-13T09:01:33;99078.81;;;25.95;15.83
14293;BME280;62290;59.420;17.842;2023-03-13T09:04:03;99069.50;;;25.97;15.38
14293;BME280;62290;59.420;17.842;2023-03-13T09:06:31;99055.56;;;25.94;15.63
14293;BME280;62290;59.420;17.842;2023-03-13T09:09:00;99053.28;;;25.97;15.98
14293;BME280;62290;59.420;17.842;2023-03-13T09:11:28;99033.38;;;25.98;15.59
14293;BME280;62290;59.420;17.842;2023-03-13T09:13:56;99015.19;;;25.86;15.71
14293;BME280;62290;59.420;17.842;2023-03-13T09:16:28;99015.34;;;25.99;16.19
14293;BME280;62290;59.420;17.842;2023-03-13T09:18:57;99013.06;;;26.02;15.99
14293;BME280;62290;59.420;17.842;2023-03-13T09:21:27;99001.53;;;26.08;16.23
14293;BME280;62290;59.420;17.842;2023-03-13T09:23:55;98996.75;;;26.10;16.29
14293;BME280;62290;59.420;17.842;2023-03-13T09:26:25;98948.16;;;25.89;16.02
14293;BME280;62290;59.420;17.842;2023-03-13T09:28:54;98978.56;;;26.12;15.88
14293;BME280;62290;59.420;17.842;2023-03-13T09:31:23;98972.28;;;26.12;16.08
14293;BME280;62290;59.420;17.842;2023-03-13T09:33:54;98961.97;;;26.15;16.14
14293;BME280;62290;59.420;17.842;2023-03-13T09:36:22;98953.69;;;26.17;16.14
14293;BME280;62290;59.420;17.842;2023-03-13T09:38:52;98944.75;;;26.16;16.59
14293;BME280;62290;59.420;17.842;2023-03-13T09:41:26;98925.72;;;26.10;16.17
14293;BME280;62290;59.420;17.842;2023-03-13T09:44:02;98936.06;;;26.21;16.67
14293;BME280;62290;59.420;17.842;2023-03-13T09:46:36;98921.72;;;26.20;16.23
14293;BME280;62290;59.420;17.842;2023-03-13T09:49:13;98908.22;;;26.20;16.80
14293;BME280;62290;59.420;17.842;2023-03-13T09:51:48;98906.19;;;26.22;16.27
14293;BME280;62290;59.420;17.842;2023-03-13T09:54:23;98894.78;;;26.27;16.83
14293;BME280;62290;59.420;17.842;2023-03-13T09:56:55;98847.03;;;26.06;16.52
14293;BME280;62290;59.420;17.842;2023-03-13T09:59:28;98868.88;;;26.32;16.92
14293;BME280;62290;59.420;17.842;2023-03-13T10:02:03;98868.88;;;26.32;16.96
14293;BME280;62290;59.420;17.842;2023-03-13T10:04:37;98836.13;;;26.14;17.01
14293;BME280;62290;59.420;17.842;2023-03-13T10:07:09;98845.59;;;26.31;17.16
14293;BME280;62290;59.420;17.842;2023-03-13T10:09:38;98854.41;;;26.40;17.39
14293;BME280;62290;59.420;17.842;2023-03-13T10:12:12;98831.69;;;26.28;17.43
14293;BME280;62290;59.420;17.842;2023-03-13T10:14:49;98841.13;;;26.45;17.18
14293;BME280;62290;59.420;17.842;2023-03-13T10:17:29;98798.19;;;26.22;17.09
14293;BME280;62290;59.420;17.842;2023-03-13T10:20:02;98823.06;;;26.46;17.59
14293;BME280;62290;59.420;17.842;2023-03-13T10:22:36;98791.97;;;26.28;17.31
14293;BME280;62290;59.420;17.842;2023-03-13T10:25:08;98808.50;;;26.47;17.33
14293;BME280;62290;59.420;17.842;2023-03-13T10:27:42;98805.63;;;26.48;17.62
14293;BME280;62290;59.420;17.842;2023-03-13T10:30:19;98792.31;;;26.47;17.36
14293;BME280;62290;59.420;17.842;2023-03-13T10:32:49;98791.06;;;26.43;17.13
14293;BME280;62290;59.420;17.842;2023-03-13T10:35:23;98776.06;;;26.40;17.41
14293;BME280;62290;59.420;17.842;2023-03-13T10:38:01;98774.59;;;26.38;17.06
14293;BME280;62290;59.420;17.842;2023-03-13T10:40:30;98764.81;;;26.30;17.19
14293;BME280;62290;59.420;17.842;2023-03-13T10:43:01;98753.56;;;26.26;17.56
14293;BME280;62290;59.420;17.842;2023-03-13T10:45:32;98734.16;;;26.16;17.62
14293;BME280;62290;59.420;17.842;2023-03-13T10:48:03;98734.03;;;26.24;17.64
14293;BME280;62290;59.420;17.842;2023-03-13T10:50:41;98721.75;;;26.22;17.90
14293;BME280;62290;59.420;17.842;2023-03-13T10:53:24;98715.72;;;26.20;17.64
14293;BME280;62290;59.420;17.842;2023-03-13T10:55:53;98707.19;;;26.16;17.97
14293;BME280;62290;59.420;17.842;2023-03-13T10:58:26;98691.38;;;26.13;17.67
14293;BME280;62290;59.420;17.842;2023-03-13T11:01:13;98690.72;;;26.11;18.13
14293;BME280;62290;59.420;17.842;2023-03-13T11:03:44;98674.06;;;26.08;17.62
14293;BME280;62290;59.420;17.842;2023-03-13T11:06:25;98665.13;;;26.07;17.91
14293;BME280;62290;59.420;17.842;2023-03-13T11:08:59;98657.47;;;26.04;17.64
14293;BME280;62290;59.420;17.842;2023-03-13T11:11:28;98648.69;;;26.02;17.99
14293;BME280;62290;59.420;17.842;2023-03-13T11:14:07;98636.25;;;26.01;17.71
14293;BME280;62290;59.420;17.842;2023-03-13T11:16:41;98626.88;;;25.97;17.68
14293;BME280;62290;59.420;17.842;2023-03-13T11:19:28;98621.69;;;25.96;17.63
14293;BME280;62290;59.420;17.842;2023-03-13T11:22:09;98623.09;;;25.92;18.09
14293;BME280;62290;59.420;17.842;2023-03-13T11:24:47;98618.31;;;25.87;17.76
14293;BME280;62290;59.420;17.842;2023-03-13T11:27:23;98610.22;;;25.87;18.08
14293;BME280;62290;59.420;17.842;2023-03-13T11:30:03;98602.13;;;25.87;17.80
14293;BME280;62290;59.420;17.842;2023-03-13T11:32:39;98595.06;;;25.86;18.44
14293;BME280;62290;59.420;17.842;2023-03-13T11:35:17;98583.44;;;25.86;18.88
14293;BME280;62290;59.420;17.842;2023-03-13T11:37:51;98585.09;;;25.87;19.18
14293;BME280;62290;59.420;17.842;2023-03-13T11:40:26;98561.63;;;25.87;19.04
14293;BME280;62290;59.420;17.842;2023-03-13T11:43:17;98553.38;;;25.89;18.93
14293;BME280;62290;59.420;17.842;2023-03-13T11:46:02;98547.13;;;25.88;18.77
14293;BME280;62290;59.420;17.842;2023-03-13T11:48:51;98530.94;;;25.88;18.55
14293;BME280;62290;59.420;17.842;2023-03-13T11:51:24;98509.28;;;25.75;18.36
14293;BME280;62290;59.420;17.842;2023-03-13T11:54:17;98511.00;;;25.89;18.26
14293;BME280;62290;59.420;17.842;2023-03-13T11:56:54;98502.09;;;25.89;18.20
14293;BME280;62290;59.420;17.842;2023-03-13T11:59:31;98475.63;;;25.71;18.48
14293;BME280;62290;59.420;17.842;2023-03-13T12:02:08;98495.88;;;25.88;18.26
14293;BME280;62290;59.420;17.842;2023-03-13T12:04:44;98480.69;;;25.87;18.41
14293;BME280;62290;59.420;17.842;2023-03-13T12:07:19;98458.09;;;25.88;18.13
14293;BME280;62290;59.420;17.842;2023-03-13T12:09:53;98451.84;;;25.88;18.11
14293;BME280;62290;59.420;17.842;2023-03-13T12:12:32;98452.88;;;25.87;18.45
14293;BME280;62290;59.420;17.842;2023-03-13T12:15:15;98431.50;;;25.85;17.85
14293;BME280;62290;59.420;17.842;2023-03-13T12:17:48;98425.28;;;25.85;18.15
14293;BME280;62290;59.420;17.842;2023-03-13T12:20:21;98419.03;;;25.84;18.03
14293;BME280;62290;59.420;17.842;2023-03-13T12:22:56;98418.22;;;25.84;18.36
14293;BME280;62290;59.420;17.842;2023-03-13T12:25:30;98380.44;;;25.70;17.77
14293;BME280;62290;59.420;17.842;2023-03-13T12:28:10;98388.56;;;25.84;18.23
14293;BME280;62290;59.420;17.842;2023-03-13T12:30:45;98385.22;;;25.82;18.15
14293;BME280;62290;59.420;17.842;2023-03-13T12:33:20;98374.41;;;25.82;18.14
14293;BME280;62290;59.420;17.842;2023-03-13T12:35:53;98361.16;;;25.80;18.18
14293;BME280;62290;59.420;17.842;2023-03-13T12:38:27;98345.78;;;25.81;17.96
14293;BME280;62290;59.420;17.842;2023-03-13T12:41:07;98351.19;;;25.81;18.26
14293;BME280;62290;59.420;17.842;2023-03-13T12:43:41;98338.94;;;25.78;18.21
14293;BME280;62290;59.420;17.842;2023-03-13T12:46:34;98328.16;;;25.78;18.32
14293;BME280;62290;59.420;17.842;2023-03-13T12:52:42;98281.44;;;25.71;18.22
14293;BME280;62290;59.420;17.842;2023-03-13T12:55:32;98279.38;;;25.73;18.16
14293;BME280;62290;59.420;17.842;2023-03-13T12:58:27;98271.06;;;25.74;18.26
14293;BME280;62290;59.420;17.842;2023-03-13T13:01:01;98256.75;;;25.74;18.23
14293;BME280;62290;59.420;17.842;2023-03-13T13:03:32;98244.09;;;25.74;17.83
14293;BME280;62290;59.420;17.842;2023-03-13T13:06:07;98232.28;;;25.75;18.18
14293;BME280;62290;59.420;17.842;2023-03-13T13:08:38;98222.50;;;25.74;18.38
14293;BME280;62290;59.420;17.842;2023-03-13T13:17:50;98174.19;;;25.73;18.28
14293;BME280;62290;59.420;17.842;2023-03-13T13:20:33;98161.50;;;25.73;18.11
14293;BME280;62290;59.420;17.842;2023-03-13T13:23:35;98150.72;;;25.73;18.04
14293;BME280;62290;59.420;17.842;2023-03-13T13:32:39;98121.25;;;25.72;18.38
14293;BME280;62290;59.420;17.842;2023-03-13T13:35:25;98105.09;;;25.72;17.93
14293;BME280;62290;59.420;17.842;2023-03-13T13:38:25;98088.91;;;25.72;18.14
14293;BME280;62290;59.420;17.842;2023-03-13T13:41:00;98074.56;;;25.71;17.93